Time;durP1;ratioP1;P1;durP2;ratioP2;P2;SDS_P1;SDS_P2;PMS_P1;PMS_P2;Temp;Humidity;BMP_temperature;BMP_pressure;BME280_temperature;BME280_humidity;BME280_pressure;Samples;Min_cycle;Max_cycle;Signal;HPM_P1;HPM_P2
2022/02/05 00:02:17;;;;;;;34.13;18.13;;;;;;;7.73;100.00;98864.31;5099675;27;20138;-96
2022/02/05 00:04:44;;;;;;;29.50;16.77;;;;;;;7.75;100.00;98862.50;5099436;28;20114;-96
2022/02/05 00:07:11;;;;;;;33.40;17.40;;;;;;;7.81;100.00;98867.72;5099550;28;20044;-96
2022/02/05 00:42:54;;;;;;;41.88;15.38;;;;;;;8.26;100.00;98873.19;5121200;27;20376;-95
2022/02/05 00:45:45;;;;;;;28.70;15.15;;;;;;;8.21;100.00;98862.69;5121051;28;20047;-96
2022/02/05 00:48:13;;;;;;;28.50;15.48;;;;;;;8.24;100.00;98864.44;5121281;28;20050;-96
2022/02/05 00:50:43;;;;;;;28.85;15.07;;;;;;;8.37;100.00;98887.16;5120691;28;20090;-96
2022/02/05 00:56:20;;;;;;;26.98;13.57;;;;;;;8.29;100.00;98865.22;5142197;27;20460;-95
2022/02/05 00:58:46;;;;;;;23.67;13.27;;;;;;;8.38;100.00;98869.50;5142877;27;20043;-95
2022/02/05 01:01:12;;;;;;;23.25;12.63;;;;;;;8.31;100.00;98855.47;5142535;27;20065;-95
2022/02/05 01:03:39;;;;;;;26.05;12.95;;;;;;;8.35;100.00;98866.88;5142778;27;20079;-95
2022/02/05 01:06:06;;;;;;;26.80;13.45;;;;;;;8.42;100.00;98881.81;5141331;27;20075;-95
2022/02/05 01:08:34;;;;;;;21.67;12.68;;;;;;;8.32;100.00;98866.94;5141869;27;20040;-95
2022/02/05 01:11:00;;;;;;;24.92;13.23;;;;;;;8.28;100.00;98862.59;5141591;27;20040;-95
2022/02/05 01:13:30;;;;;;;28.40;13.07;;;;;;;8.33;100.00;98874.00;5141098;27;20128;-95
2022/02/05 01:18:47;;;;;;;33.35;12.13;;;;;;;8.49;99.88;98887.91;5061359;27;20381;-96
2022/02/05 01:21:25;;;;;;;25.53;11.17;;;;;;;8.40;99.55;98871.25;5060919;28;20490;-96
2022/02/05 01:23:58;;;;;;;23.98;11.77;;;;;;;8.41;99.39;98867.72;5059971;28;20041;-96
2022/02/05 01:26:30;;;;;;;26.95;11.02;;;;;;;8.40;99.59;98858.00;5060295;28;20056;-95
2022/02/05 01:29:02;;;;;;;24.50;11.00;;;;;;;8.42;99.41;98856.19;5059880;28;20068;-96
2022/02/05 01:31:34;;;;;;;31.35;12.38;;;;;;;8.41;99.32;98851.81;5059099;28;20053;-95
2022/02/05 01:34:14;;;;;;;23.20;11.38;;;;;;;8.39;99.39;98852.69;5058616;28;20379;-96
2022/02/05 01:51:59;;;;;;;36.13;12.52;;;;;;;8.44;98.03;98850.88;5100139;27;20385;-94
2022/02/05 01:54:33;;;;;;;26.02;11.13;;;;;;;8.38;97.98;98845.66;5099856;28;20066;-95
2022/02/05 02:12:05;;;;;;;23.13;11.38;;;;;;;8.19;99.28;98853.00;5139274;27;20399;-95
2022/02/05 02:20:55;;;;;;;23.10;11.65;;;;;;;8.32;98.59;98849.25;5182275;27;20384;-95
2022/02/05 02:26:39;;;;;;;22.52;10.77;;;;;;;8.30;98.33;98850.19;5157075;27;20366;-96
2022/02/05 02:29:03;;;;;;;23.40;10.25;;;;;;;8.40;98.44;98865.03;5140981;28;20042;-96
2022/02/05 02:31:34;;;;;;;27.48;10.70;;;;;;;8.22;98.59;98847.69;5141823;27;20023;-96
2022/02/05 02:34:04;;;;;;;19.63;10.40;;;;;;;8.28;98.77;98855.50;5142789;27;20095;-96
2022/02/05 02:36:35;;;;;;;24.08;10.38;;;;;;;8.23;99.28;98850.28;5141709;27;20054;-96
2022/02/05 02:39:09;;;;;;;25.63;10.65;;;;;;;8.17;99.60;98850.38;5141187;27;20050;-96
2022/02/05 02:41:45;;;;;;;25.80;10.35;;;;;;;8.19;99.97;98850.38;5141455;28;20046;-95
2022/02/05 02:44:11;;;;;;;18.55;10.40;;;;;;;8.17;100.00;98855.69;5141783;27;20097;-95
2022/02/05 02:46:37;;;;;;;17.60;10.48;;;;;;;8.28;100.00;98886.44;5140732;27;20050;-96
2022/02/05 02:49:05;;;;;;;24.75;10.82;;;;;;;8.11;100.00;98854.91;5141032;28;20373;-95
2022/02/05 02:57:38;;;;;;;28.70;11.43;;;;;;;8.18;100.00;98856.56;5120832;27;20400;-96
2022/02/05 03:00:10;;;;;;;28.98;11.40;;;;;;;8.13;100.00;98850.47;5119998;28;20101;-96
2022/02/05 03:02:36;;;;;;;18.67;10.65;;;;;;;8.17;100.00;98860.09;5119662;28;20032;-96
2022/02/05 03:05:03;;;;;;;23.70;11.13;;;;;;;8.11;100.00;98853.16;5120029;28;20127;-96
2022/02/05 03:07:29;;;;;;;22.13;10.52;;;;;;;8.07;100.00;98853.19;5120392;28;20078;-96
2022/02/05 03:09:56;;;;;;;22.73;11.63;;;;;;;8.03;100.00;98847.97;5119766;28;20048;-94
2022/02/05 03:12:22;;;;;;;20.63;10.93;;;;;;;8.07;100.00;98853.19;5121312;28;20181;-96
2022/02/05 03:14:51;;;;;;;18.60;10.95;;;;;;;8.03;100.00;98845.31;5121011;28;20047;-95
2022/02/05 03:17:19;;;;;;;27.45;11.18;;;;;;;8.20;100.00;98875.97;5120845;28;20433;-96
2022/02/05 03:19:47;;;;;;;21.40;9.65;;;;;;;8.03;100.00;98853.25;5121234;28;20047;-96
2022/02/05 03:22:15;;;;;;;25.27;10.20;;;;;;;7.99;100.00;98843.59;5121103;28;20091;-96
2022/02/05 03:24:41;;;;;;;24.48;11.05;;;;;;;7.99;100.00;98846.25;5121234;28;20135;-96
2022/02/05 03:27:08;;;;;;;22.00;10.20;;;;;;;7.99;100.00;98850.69;5122217;28;20433;-95
2022/02/05 03:29:35;;;;;;;27.35;11.25;;;;;;;8.01;100.00;98868.28;5121665;28;20055;-96
2022/02/05 03:32:03;;;;;;;21.42;10.15;;;;;;;7.92;100.00;98852.56;5119700;28;20050;-96
2022/02/05 03:34:29;;;;;;;20.88;10.80;;;;;;;7.94;100.00;98855.19;5120592;28;20047;-96
2022/02/05 03:36:56;;;;;;;20.95;9.88;;;;;;;7.93;100.00;98846.34;5121073;28;20036;-95
2022/02/05 03:39:22;;;;;;;17.42;9.18;;;;;;;8.03;100.00;98850.59;5120731;28;20048;-96
2022/02/05 03:41:48;;;;;;;19.85;10.40;;;;;;;8.06;100.00;98859.41;5120967;28;20044;-95
2022/02/05 03:44:14;;;;;;;18.30;9.52;;;;;;;8.00;100.00;98850.66;5120622;28;20039;-95
2022/02/05 03:46:40;;;;;;;19.77;10.25;;;;;;;7.96;100.00;98845.44;5120359;28;20047;-95
2022/02/05 03:49:08;;;;;;;18.45;9.52;;;;;;;8.00;100.00;98858.63;5120535;28;20048;-96
2022/02/05 03:51:34;;;;;;;19.55;9.85;;;;;;;8.03;100.00;98853.25;5120771;28;20047;-94
2022/02/05 03:54:00;;;;;;;18.50;9.98;;;;;;;8.04;100.00;98848.81;5120071;28;20044;-95
2022/02/05 03:56:26;;;;;;;21.42;10.63;;;;;;;8.05;100.00;98863.84;5120681;28;20059;-95
2022/02/05 03:58:52;;;;;;;21.10;10.43;;;;;;;8.14;100.00;98886.66;5120394;28;20040;-95
2022/02/05 04:01:18;;;;;;;22.00;9.82;;;;;;;8.03;100.00;98868.28;5119837;28;20485;-96
2022/02/05 04:03:44;;;;;;;24.73;10.52;;;;;;;7.97;100.00;98858.66;5121789;28;20120;-95
2022/02/05 04:06:12;;;;;;;18.83;10.00;;;;;;;7.99;100.00;98864.78;5121396;28;20044;-96
2022/02/05 04:08:38;;;;;;;19.55;9.93;;;;;;;7.99;100.00;98863.94;5108502;28;20083;-95
2022/02/05 04:11:11;;;;;;;20.50;9.90;;;;;;;8.04;100.00;98867.38;5108542;28;20044;-95
2022/02/05 04:16:36;;;;;;;16.75;9.52;;;;;;;8.00;100.00;98863.91;5164390;27;20188;-95
2022/02/05 04:19:02;;;;;;;21.90;10.27;;;;;;;8.08;100.00;98870.84;5142922;27;20055;-95
2022/02/05 04:21:29;;;;;;;20.42;9.50;;;;;;;7.91;100.00;98839.34;5142975;27;20065;-96
2022/02/05 04:24:01;;;;;;;21.77;9.77;;;;;;;7.90;100.00;98838.47;5143436;27;20035;-96
2022/02/05 04:26:28;;;;;;;16.63;9.13;;;;;;;8.02;100.00;98856.81;5142460;27;20042;-95
2022/02/05 04:28:54;;;;;;;16.77;9.40;;;;;;;8.03;100.00;98858.56;5143430;27;20044;-96
2022/02/05 04:31:20;;;;;;;19.30;8.85;;;;;;;7.90;100.00;98845.53;5144048;27;20047;-95
2022/02/05 04:33:47;;;;;;;19.25;11.00;;;;;;;7.86;100.00;98835.88;5144287;27;20091;-95
2022/02/05 04:36:15;;;;;;;24.70;11.70;;;;;;;8.02;100.00;98870.06;5144441;27;20047;-95
2022/02/05 04:38:44;;;;;;;31.17;15.70;;;;;;;7.78;100.00;98842.16;5143729;27;20051;-94
2022/02/05 04:41:17;;;;;;;22.25;14.77;;;;;;;7.75;100.00;98841.34;5142390;27;20067;-96
2022/02/05 04:52:57;;;;;;;26.80;14.40;;;;;;;7.73;100.00;98846.66;5144447;27;20382;-94
2022/02/05 05:01:40;;;;;;;27.17;16.27;;;;;;;7.69;100.00;98838.78;5103392;27;20378;-96
2022/02/05 05:10:26;;;;;;;31.35;17.65;;;;;;;7.65;100.00;98839.72;5082813;27;20384;-95
2022/02/05 05:22:02;;;;;;;37.15;20.95;;;;;;;7.57;100.00;98832.75;5183374;27;20392;-95
2022/02/05 05:24:28;;;;;;;28.65;16.63;;;;;;;7.54;100.00;98834.56;5184376;27;20042;-95
2022/02/05 05:26:54;;;;;;;33.40;17.58;;;;;;;7.55;100.00;98833.69;5183256;27;20049;-95
2022/02/05 05:29:21;;;;;;;32.15;17.65;;;;;;;7.50;100.00;98831.06;5183924;27;20030;-95
2022/02/05 05:31:47;;;;;;;32.95;18.10;;;;;;;7.48;100.00;98824.06;5184056;27;20038;-95
2022/02/05 05:34:13;;;;;;;36.60;18.35;;;;;;;7.50;100.00;98836.38;5183949;27;20046;-95
2022/02/05 05:36:39;;;;;;;32.10;17.80;;;;;;;7.48;100.00;98837.28;5183987;27;20043;-96
2022/02/05 05:39:08;;;;;;;35.03;18.00;;;;;;;7.44;100.00;98828.53;5185455;27;20557;-95
2022/02/05 05:41:37;;;;;;;30.48;17.42;;;;;;;7.43;100.00;98824.13;5184660;27;20038;-94
2022/02/05 05:53:05;;;;;;;28.67;16.13;;;;;;;7.48;100.00;98845.22;5128644;28;20543;-95
2022/02/05 05:55:32;;;;;;;32.65;16.60;;;;;;;7.47;100.00;98846.16;5144658;28;20296;-96
2022/02/05 05:57:58;;;;;;;28.92;15.32;;;;;;;7.44;100.00;98846.16;5143365;28;20035;-96
2022/02/05 06:00:25;;;;;;;24.40;15.32;;;;;;;7.39;100.00;98846.22;5144520;28;20047;-96
2022/02/05 06:02:51;;;;;;;28.40;16.10;;;;;;;7.39;100.00;98848.88;5143752;28;20043;-95
2022/02/05 06:05:19;;;;;;;29.60;15.48;;;;;;;7.41;100.00;98857.66;5141560;28;20044;-96
2022/02/05 06:07:45;;;;;;;23.58;13.43;;;;;;;7.43;100.00;98855.88;5142504;28;20080;-96
2022/02/05 06:10:11;;;;;;;23.83;13.05;;;;;;;7.46;100.00;98855.84;5143025;28;20388;-96
2022/02/05 06:12:37;;;;;;;25.27;12.15;;;;;;;7.49;100.00;98854.94;5141976;28;20438;-95
2022/02/05 06:15:07;;;;;;;28.95;12.38;;;;;;;7.49;100.00;98857.59;5141410;28;20046;-96
2022/02/05 06:17:33;;;;;;;22.67;12.35;;;;;;;7.49;100.00;98855.81;5141338;28;20039;-96
2022/02/05 06:19:59;;;;;;;20.45;11.90;;;;;;;7.57;100.00;98864.53;5142199;28;20043;-96
2022/02/05 06:22:26;;;;;;;26.33;12.30;;;;;;;7.50;100.00;98861.97;5142318;28;20039;-96
2022/02/05 06:24:53;;;;;;;25.38;11.60;;;;;;;7.48;100.00;98855.81;5140340;28;20047;-95
2022/02/05 06:27:19;;;;;;;24.95;10.93;;;;;;;7.45;100.00;98853.22;5142340;28;20043;-95
2022/02/05 06:29:45;;;;;;;21.33;11.32;;;;;;;7.42;100.00;98846.22;5142396;28;20067;-96
2022/02/05 06:32:15;;;;;;;25.10;12.13;;;;;;;7.49;100.00;98847.88;5142035;28;20563;-95
2022/02/05 06:34:41;;;;;;;25.48;12.15;;;;;;;7.48;100.00;98851.44;5141389;28;20046;-95
2022/02/05 06:37:07;;;;;;;25.23;12.05;;;;;;;7.57;100.00;98863.66;5140281;28;20488;-94
2022/02/05 06:39:35;;;;;;;21.60;11.25;;;;;;;7.55;100.00;98858.38;5139763;28;20147;-96
2022/02/05 06:42:01;;;;;;;23.73;11.57;;;;;;;7.49;100.00;98866.38;5139596;28;20049;-95
2022/02/05 06:44:27;;;;;;;22.15;11.25;;;;;;;7.55;100.00;98879.53;5139513;28;20055;-95
2022/02/05 06:46:53;;;;;;;20.50;12.05;;;;;;;7.63;100.00;98875.91;5140105;28;20044;-95
2022/02/05 06:49:23;;;;;;;30.48;12.98;;;;;;;7.81;100.00;98867.72;5139502;28;20115;-95
2022/02/05 06:51:49;;;;;;;25.25;12.43;;;;;;;7.89;100.00;98881.72;5139316;28;20043;-95
2022/02/05 06:54:15;;;;;;;28.42;12.88;;;;;;;7.91;100.00;98879.91;5140961;28;20039;-96
2022/02/05 06:56:43;;;;;;;23.20;12.82;;;;;;;8.02;100.00;98885.06;5139596;28;20404;-95
2022/02/05 06:59:09;;;;;;;24.42;11.82;;;;;;;7.99;100.00;98885.97;5138653;28;20032;-96
2022/02/05 07:01:35;;;;;;;21.27;12.02;;;;;;;8.00;100.00;98895.69;5124119;28;20069;-95
2022/02/05 07:04:01;;;;;;;24.17;12.20;;;;;;;8.10;100.00;98907.00;5125929;28;20048;-95
2022/02/05 07:06:27;;;;;;;25.20;12.35;;;;;;;8.12;100.00;98909.66;5124483;28;20028;-96
2022/02/05 07:08:55;;;;;;;23.33;12.05;;;;;;;8.08;100.00;98900.84;5124479;28;20036;-95
2022/02/05 07:11:21;;;;;;;27.00;13.05;;;;;;;8.15;100.00;98904.28;5123988;28;20040;-95
2022/02/05 07:13:52;;;;;;;30.38;12.73;;;;;;;8.23;100.00;98919.16;5126002;28;20050;-95
2022/02/05 07:16:25;;;;;;;25.52;14.50;;;;;;;8.21;100.00;98912.16;5127357;28;20047;-95
2022/02/05 07:19:11;;;;;;;34.92;18.00;;;;;;;8.38;100.00;98933.09;5127854;28;20047;-95
2022/02/05 07:21:42;;;;;;;35.55;20.30;;;;;;;8.21;100.00;98915.66;5111387;28;20047;-96
2022/02/05 07:24:20;;;;;;;38.75;22.58;;;;;;;8.19;100.00;98916.59;5126582;28;20552;-96
2022/02/05 07:29:47;;;;;;;35.50;19.13;;;;;;;8.12;100.00;98917.59;5121604;27;20384;-95
2022/02/05 07:32:14;;;;;;;31.90;18.63;;;;;;;8.27;100.00;98938.56;5122570;28;20051;-96
2022/02/05 07:34:40;;;;;;;38.97;20.88;;;;;;;8.39;100.00;98951.63;5123371;28;20058;-94
2022/02/05 07:37:06;;;;;;;36.15;19.85;;;;;;;8.48;100.00;98957.69;5125065;28;20444;-95
2022/02/05 07:39:41;;;;;;;35.88;19.80;;;;;;;8.29;100.00;98917.34;5124343;28;20047;-94
2022/02/05 07:42:08;;;;;;;38.47;19.98;;;;;;;8.33;100.00;98924.34;5122923;28;20048;-95
2022/02/05 07:44:34;;;;;;;36.28;20.63;;;;;;;8.32;100.00;98926.09;5122767;28;20043;-95
2022/02/05 07:47:02;;;;;;;51.13;26.65;;;;;;;8.44;99.70;98946.28;5121494;28;20079;-95
2022/02/05 07:49:36;;;;;;;45.72;26.08;;;;;;;8.31;99.58;98923.50;5122086;28;20044;-95
2022/02/05 07:52:03;;;;;;;44.58;25.98;;;;;;;8.40;99.75;98945.44;5122707;28;20447;-95
2022/02/05 07:54:29;;;;;;;51.70;26.88;;;;;;;8.25;99.30;98929.75;5122243;28;20130;-94
2022/02/05 07:56:55;;;;;;;47.95;28.88;;;;;;;8.25;99.58;98932.41;5122396;28;20044;-96
2022/02/05 07:59:21;;;;;;;53.78;28.42;;;;;;;8.25;99.58;98932.41;5123328;28;20557;-95
2022/02/05 08:01:47;;;;;;;55.25;31.02;;;;;;;8.31;100.00;98937.59;5122509;28;20043;-95
2022/02/05 08:04:18;;;;;;;54.22;30.23;;;;;;;8.28;99.09;98929.69;5120988;28;20047;-94
2022/02/05 08:06:46;;;;;;;53.85;31.40;;;;;;;8.46;99.38;98954.19;5120408;28;20044;-94
2022/02/05 08:09:17;;;;;;;52.95;30.77;;;;;;;8.43;98.65;98948.03;5119486;28;20518;-96
2022/02/05 08:11:51;;;;;;;51.65;30.23;;;;;;;8.50;98.65;98945.28;5117645;28;20039;-95
2022/02/05 08:14:19;;;;;;;52.35;31.48;;;;;;;8.58;98.24;98944.25;5117801;28;20131;-95
2022/02/05 08:19:31;;;;;;;53.42;31.58;;;;;;;8.61;96.86;98946.88;5142178;27;20476;-96
2022/02/05 08:21:57;;;;;;;53.90;32.97;;;;;;;8.60;96.60;98947.78;5143346;28;20079;-96
2022/02/05 08:24:23;;;;;;;54.72;32.55;;;;;;;8.62;96.47;98939.81;5143632;28;20039;-95
2022/02/05 08:26:50;;;;;;;59.03;33.55;;;;;;;8.63;96.34;98945.09;5144856;28;20093;-96
2022/02/05 08:29:18;;;;;;;68.80;32.38;;;;;;;8.66;96.21;98948.59;5146154;28;20074;-94
2022/02/05 08:31:44;;;;;;;54.60;32.55;;;;;;;8.65;95.85;98947.69;5144720;28;20099;-94
2022/02/05 08:34:10;;;;;;;51.38;30.02;;;;;;;8.66;95.95;98949.47;5143908;28;20077;-95
2022/02/05 08:36:42;;;;;;;50.72;30.63;;;;;;;8.68;96.42;98957.41;5139467;28;20043;-94
2022/02/05 08:39:09;;;;;;;54.38;30.27;;;;;;;8.69;96.50;98953.81;5140535;28;20039;-93
2022/02/05 08:41:35;;;;;;;48.78;31.00;;;;;;;8.71;97.06;98960.84;5140933;28;20047;-94
2022/02/05 08:44:01;;;;;;;57.53;32.25;;;;;;;8.86;96.86;98978.28;5141132;28;20171;-93
2022/02/05 08:46:27;;;;;;;57.95;32.00;;;;;;;8.95;96.50;98994.03;5141134;28;20077;-94
2022/02/05 08:48:53;;;;;;;56.08;32.75;;;;;;;8.85;96.23;98968.59;5140208;28;20039;-95
2022/02/05 08:51:20;;;;;;;56.50;32.80;;;;;;;8.86;95.94;98966.81;5138303;28;20040;-92
2022/02/05 08:53:48;;;;;;;59.17;33.13;;;;;;;8.88;95.76;98965.88;5139048;28;20048;-95
2022/02/05 08:56:14;;;;;;;55.28;33.10;;;;;;;8.96;96.07;98979.03;5139048;28;20039;-94
2022/02/05 08:58:40;;;;;;;56.75;32.28;;;;;;;9.03;96.39;98978.00;5138794;28;20096;-96
2022/02/05 09:01:13;;;;;;;57.42;32.95;;;;;;;9.11;96.13;98976.09;5139089;28;20043;-93
2022/02/05 09:03:47;;;;;;;74.25;43.00;;;;;;;9.18;95.36;98982.16;5138599;28;20043;-94
2022/02/05 09:06:13;;;;;;;69.90;40.97;;;;;;;9.27;95.59;98978.47;5138033;28;20039;-94
2022/02/05 09:08:48;;;;;;;63.20;37.67;;;;;;;9.50;94.38;98996.59;5137869;28;20039;-94
2022/02/05 09:27:37;;;;;;;52.80;31.50;;;;;;;9.91;91.81;98979.84;6196633;22;3369308;-95
2022/02/05 09:30:14;;;;;;;57.28;32.67;;;;;;;9.91;91.57;98986.94;6365165;22;20386;-96
2022/02/05 09:32:43;;;;;;;51.55;30.30;;;;;;;9.94;91.26;98987.75;6364148;22;20322;-96
2022/02/05 09:35:14;;;;;;;53.15;32.33;;;;;;;10.07;90.30;98989.25;6368457;22;20366;-95
2022/02/05 09:37:41;;;;;;;57.60;34.00;;;;;;;10.13;89.43;98982.03;6362894;22;20066;-95
2022/02/05 09:40:07;;;;;;;53.55;32.00;;;;;;;10.24;89.64;99003.94;6359075;22;20041;-96
2022/02/05 09:42:42;;;;;;;59.22;32.90;;;;;;;10.25;89.74;98997.72;6357940;22;20026;-96
2022/02/05 09:45:09;;;;;;;51.15;30.10;;;;;;;10.18;88.88;99007.59;6324759;22;20018;-96
2022/02/05 09:47:38;;;;;;;53.03;32.30;;;;;;;10.18;90.28;99006.75;6329546;22;20015;-95
2022/02/05 09:50:06;;;;;;;50.55;29.70;;;;;;;10.28;89.60;99008.28;6326419;22;20042;-96
2022/02/05 09:52:32;;;;;;;61.25;30.55;;;;;;;10.36;89.82;99009.00;6325191;22;20025;-95
2022/02/05 09:54:58;;;;;;;58.30;33.58;;;;;;;10.52;88.93;99022.84;6325102;22;20011;-95
2022/02/05 09:57:24;;;;;;;58.95;32.95;;;;;;;10.51;88.53;99023.75;6323625;22;20102;-95
2022/02/05 09:59:56;;;;;;;62.70;35.00;;;;;;;10.35;89.04;99011.72;6320952;22;20061;-96
2022/02/05 10:02:28;;;;;;;66.07;37.70;;;;;;;10.41;89.77;99020.44;6321474;22;20015;-95
2022/02/05 10:04:58;;;;;;;63.95;36.75;;;;;;;10.51;89.70;99025.53;6320417;22;20015;-95
2022/02/05 10:07:24;;;;;;;;;;;;;;;10.69;89.36;99046.38;6320783;22;20019;-95
2022/02/05 10:09:54;;;;;;;52.42;33.05;;;;;;;10.68;88.75;99034.00;6320215;22;20347;-94
2022/02/05 10:12:20;;;;;;;55.33;32.75;;;;;;;10.69;87.80;99033.97;6318741;22;20039;-95
2022/02/05 10:14:55;;;;;;;55.10;31.38;;;;;;;10.74;88.60;99041.84;6318732;22;20025;-96
2022/02/05 10:17:36;;;;;;;56.78;31.55;;;;;;;10.69;87.93;99019.78;6318883;22;20045;-94
2022/02/05 10:20:03;;;;;;;66.10;35.42;;;;;;;10.86;87.78;99038.00;6318985;22;20019;-94
2022/02/05 10:22:36;;;;;;;60.47;31.30;;;;;;;10.82;87.11;99020.38;6318970;22;20348;-94
2022/02/05 10:25:19;;;;;;;50.42;26.27;;;;;;;10.86;86.64;99014.97;6319030;22;20318;-95
2022/02/05 10:27:47;;;;;;;43.03;24.55;;;;;;;10.96;86.16;99023.56;6312926;22;20095;-95
2022/02/05 10:30:20;;;;;;;47.03;26.17;;;;;;;10.93;85.47;99020.09;6313062;22;20336;-96
2022/02/05 10:32:50;;;;;;;43.50;26.80;;;;;;;11.12;86.06;99032.03;6314653;22;20019;-95
2022/02/05 10:35:23;;;;;;;45.22;25.92;;;;;;;11.08;85.43;99012.63;6314180;22;20098;-95
2022/02/05 10:38:01;;;;;;;49.17;26.67;;;;;;;11.17;85.37;99027.50;6313189;22;20449;-94
2022/02/05 10:40:42;;;;;;;44.85;23.70;;;;;;;11.31;85.63;99035.13;6315833;22;20015;-96
2022/02/05 10:43:12;;;;;;;46.92;23.20;;;;;;;11.24;85.13;99010.44;6318986;22;20026;-95
2022/02/05 10:45:47;;;;;;;44.75;22.40;;;;;;;11.50;84.81;99024.88;6329351;22;20021;-94
2022/02/05 10:48:14;;;;;;;41.17;23.17;;;;;;;11.57;83.90;99031.75;6316744;22;20043;-95
2022/02/05 10:50:40;;;;;;;39.40;24.23;;;;;;;11.48;82.97;99002.72;6317513;22;20098;-95
2022/02/05 10:53:16;;;;;;;39.15;23.83;;;;;;;11.72;83.05;99015.38;6320030;22;20045;-94
2022/02/05 11:07:57;;;;;;;45.17;24.10;;;;;;;12.03;81.35;98979.00;5117819;27;20377;-94
2022/02/05 11:10:47;;;;;;;48.47;23.27;;;;;;;12.11;80.71;98979.66;5116446;28;20038;-94
2022/02/05 11:13:22;;;;;;;43.20;22.05;;;;;;;12.24;80.82;98981.03;5114112;28;20046;-96
2022/02/05 11:18:56;;;;;;;41.75;21.50;;;;;;;11.97;81.44;98973.84;5096645;27;20386;-95
2022/02/05 11:21:23;;;;;;;34.90;19.67;;;;;;;12.09;81.39;98979.69;5097789;28;20052;-95
2022/02/05 11:23:52;;;;;;;38.28;22.00;;;;;;;12.20;80.16;98970.50;5096540;28;20040;-96
2022/02/05 11:26:20;;;;;;;39.78;23.23;;;;;;;12.35;80.56;98972.69;5099068;28;20075;-96
2022/02/05 11:28:54;;;;;;;47.55;26.55;;;;;;;12.63;79.54;98983.38;5097947;28;20505;-95
2022/02/05 11:34:31;;;;;;;46.78;21.10;;;;;;;12.81;78.20;98981.91;5094844;27;20359;-95
2022/02/05 11:36:59;;;;;;;37.70;19.98;;;;;;;12.95;77.75;98985.00;5092902;28;20056;-96
2022/02/05 11:39:26;;;;;;;27.47;16.93;;;;;;;13.00;76.14;98981.31;5093414;28;20122;-94
2022/02/05 11:41:52;;;;;;;33.17;16.27;;;;;;;13.06;75.57;98970.41;5092826;28;20036;-95
2022/02/05 11:44:23;;;;;;;26.10;12.88;;;;;;;13.10;72.37;98977.41;5093402;28;20090;-94
2022/02/05 11:47:23;;;;;;;31.58;12.70;;;;;;;13.10;70.67;98977.41;5094646;28;20048;-95
2022/02/05 11:50:23;;;;;;;25.55;12.65;;;;;;;13.12;70.91;98986.25;5089919;28;20505;-92
2022/02/05 11:52:59;;;;;;;21.80;12.27;;;;;;;13.21;70.42;98974.38;5083817;28;20048;-94
2022/02/05 11:55:34;;;;;;;22.20;11.85;;;;;;;12.47;72.79;98967.00;5089673;28;20045;-95
2022/02/05 11:58:01;;;;;;;29.55;15.00;;;;;;;12.67;72.18;98978.81;5092723;28;20054;-94
2022/02/05 12:00:33;;;;;;;32.33;17.48;;;;;;;12.66;72.04;98959.25;5092842;28;20085;-96
2022/02/05 12:03:14;;;;;;;25.60;12.35;;;;;;;12.68;72.04;98938.72;5093328;28;20041;-95
2022/02/05 12:05:50;;;;;;;26.50;14.07;;;;;;;12.79;72.03;98954.38;5074740;28;20086;-95
2022/02/05 12:08:26;;;;;;;26.88;14.00;;;;;;;12.94;71.94;98966.34;5072695;28;20040;-95
2022/02/05 12:10:56;;;;;;;34.88;15.40;;;;;;;13.08;70.36;98974.78;5073960;28;20386;-95
2022/02/05 12:13:25;;;;;;;27.33;14.35;;;;;;;12.87;71.21;98928.31;5078710;28;20044;-94
2022/02/05 12:16:20;;;;;;;27.35;14.55;;;;;;;13.13;72.07;98958.59;5093624;28;20051;-96
2022/02/05 12:19:09;;;;;;;28.23;13.18;;;;;;;13.25;69.86;98942.16;5100823;28;20036;-96
2022/02/05 12:28:33;;;;;;;26.85;14.32;;;;;;;13.43;69.61;98938.00;5116251;27;20396;-93
2022/02/05 12:31:00;;;;;;;26.27;13.32;;;;;;;13.54;69.07;98946.47;5114678;28;20472;-94
2022/02/05 12:33:41;;;;;;;29.17;13.95;;;;;;;13.10;69.67;98924.00;5115999;28;20044;-94
2022/02/05 12:36:07;;;;;;;28.92;13.75;;;;;;;13.23;70.19;98924.41;5115194;28;20043;-94
2022/02/05 12:38:37;;;;;;;27.52;13.63;;;;;;;13.43;69.99;98947.81;5114393;28;20044;-94
2022/02/05 12:41:07;;;;;;;23.95;12.70;;;;;;;13.51;69.92;98945.69;5113263;28;20043;-94
2022/02/05 12:43:50;;;;;;;23.45;11.90;;;;;;;13.48;69.91;98935.16;5113125;28;20040;-95
2022/02/05 12:46:16;;;;;;;25.65;12.32;;;;;;;13.48;69.67;98930.66;5113284;28;20539;-96
2022/02/05 12:48:46;;;;;;;23.50;11.50;;;;;;;13.41;69.90;98912.25;5113255;28;20415;-94
2022/02/05 12:51:13;;;;;;;27.73;12.27;;;;;;;13.63;69.88;98939.94;5114840;28;20044;-96
2022/02/05 12:53:40;;;;;;;31.63;13.52;;;;;;;13.74;69.12;98943.06;5113241;28;20044;-95
2022/02/05 12:56:12;;;;;;;27.00;13.27;;;;;;;13.90;68.65;98947.84;5112961;28;20067;-95
2022/02/05 12:58:53;;;;;;;31.08;14.27;;;;;;;13.81;68.52;98916.97;5113133;28;20154;-94
2022/02/05 13:01:19;;;;;;;26.50;12.25;;;;;;;13.91;67.63;98925.53;5113782;28;20441;-96
2022/02/05 13:03:45;;;;;;;23.40;11.35;;;;;;;14.04;67.59;98928.63;5116359;28;20036;-96
2022/02/05 13:06:16;;;;;;;26.55;11.48;;;;;;;13.94;67.35;98915.59;5113694;28;20408;-95
2022/02/05 13:08:47;;;;;;;28.45;11.18;;;;;;;14.04;67.01;98942.84;5113063;28;20068;-95
2022/02/05 13:11:17;;;;;;;24.90;11.55;;;;;;;13.95;66.89;98940.53;5112835;28;20493;-96
2022/02/05 13:13:52;;;;;;;31.73;14.00;;;;;;;13.87;67.09;98931.91;5112126;28;20044;-95
2022/02/05 13:16:18;;;;;;;25.40;11.27;;;;;;;13.81;67.36;98918.78;5111852;28;20051;-94
2022/02/05 13:18:55;;;;;;;25.55;11.30;;;;;;;13.86;67.10;98935.53;5112202;28;20048;-94
2022/02/05 13:36:36;;;;;;;23.08;9.48;;;;;;;14.02;63.06;98915.28;5154170;27;20371;-95
2022/02/05 13:39:16;;;;;;;18.88;8.52;;;;;;;14.11;61.43;98909.56;5153807;27;20047;-95
2022/02/05 13:44:55;;;;;;;35.33;17.50;;;;;;;14.25;63.56;98922.44;5092199;27;20366;-94
2022/02/05 13:47:22;;;;;;;19.20;8.93;;;;;;;13.91;63.27;98920.19;5092186;28;20060;-94
2022/02/05 13:50:08;;;;;;;19.77;8.40;;;;;;;13.83;63.79;98915.13;5092107;28;20036;-94
2022/02/05 13:52:37;;;;;;;24.60;8.15;;;;;;;13.92;63.63;98929.94;5091948;28;20491;-94
2022/02/05 13:55:15;;;;;;;18.90;7.95;;;;;;;13.89;64.82;98930.06;5091842;28;20484;-95
2022/02/05 13:58:01;;;;;;;19.27;8.07;;;;;;;13.79;64.21;98921.50;5092182;28;20052;-94
2022/02/05 14:00:43;;;;;;;18.13;7.90;;;;;;;13.64;63.14;98925.66;5091281;28;20045;-94
2022/02/05 14:03:10;;;;;;;36.88;15.23;;;;;;;13.68;62.30;98934.41;5072276;28;20041;-94
2022/02/05 14:05:42;;;;;;;19.95;8.23;;;;;;;13.57;63.16;98929.47;5072403;28;20094;-94
2022/02/05 14:08:08;;;;;;;17.80;8.20;;;;;;;13.58;64.31;98939.22;5092370;28;20048;-95
2022/02/05 14:10:34;;;;;;;20.58;9.52;;;;;;;13.55;65.40;98942.91;5092035;28;20461;-94
2022/02/05 14:13:00;;;;;;;13.70;7.47;;;;;;;13.38;65.67;98939.06;5092567;28;20128;-94
2022/02/05 14:15:28;;;;;;;17.83;8.52;;;;;;;13.31;66.67;98931.25;5091738;28;20067;-94
2022/02/05 14:18:07;;;;;;;20.92;8.68;;;;;;;13.34;65.18;98947.19;5092339;28;20040;-94
2022/02/05 14:20:38;;;;;;;44.50;25.98;;;;;;;13.30;66.15;98937.53;5092050;28;20068;-94
2022/02/05 14:23:05;;;;;;;20.98;9.38;;;;;;;13.17;66.22;98935.34;5092006;28;20392;-95
2022/02/05 14:25:35;;;;;;;28.63;13.18;;;;;;;13.23;65.81;98946.69;5091899;28;20048;-94
2022/02/05 14:28:06;;;;;;;23.52;11.88;;;;;;;13.12;66.45;98951.53;5091968;28;20051;-94
2022/02/05 14:30:34;;;;;;;28.05;12.52;;;;;;;13.01;67.41;98945.66;5091455;28;20040;-95
2022/02/05 14:33:08;;;;;;;39.35;15.63;;;;;;;12.99;67.18;98959.09;5092021;28;20032;-95
2022/02/05 14:35:49;;;;;;;27.08;13.30;;;;;;;12.82;67.64;98951.63;5091464;28;20047;-94
2022/02/05 14:41:17;;;;;;;30.33;14.52;;;;;;;12.58;68.73;98952.41;5093265;27;20375;-93
2022/02/05 14:43:43;;;;;;;25.80;10.52;;;;;;;12.69;68.02;98956.50;5092499;28;20052;-95
2022/02/05 14:46:09;;;;;;;28.52;11.95;;;;;;;12.64;68.36;98944.22;5092686;28;20048;-95
2022/02/05 14:48:34;;;;;;;39.55;13.73;;;;;;;12.77;69.19;98971.38;5092409;28;20033;-95